sensor_id;sensor_type;location;lat;lon;timestamp;pressure;altitude;pressure_sealevel;temperature;humidity
78679;BME280;67994;59.334;13.528;2023-09-08T00:00:00;101900.0;;;15.4;84.5
78679;BME280;67994;59.334;13.528;2023-09-08T00:01:00;101900.0;;;15.4;84.9
78679;BME280;67994;59.334;13.528;2023-09-08T00:02:00;101900.0;;;15.4;84.7
78679;BME280;67994;59.334;13.528;2023-09-08T00:03:00;101900.0;;;15.4;84.3
78679;BME280;67994;59.334;13.528;2023-09-08T00:04:00;101900.0;;;15.4;85.0
78679;BME280;67994;59.334;13.528;2023-09-08T00:05:00;101900.0;;;15.4;84.1
78679;BME280;67994;59.334;13.528;2023-09-08T00:06:00;101900.0;;;15.4;84.5
78679;BME280;67994;59.334;13.528;2023-09-08T00:07:01;101900.0;;;15.3;84.9
78679;BME280;67994;59.334;13.528;2023-09-08T00:08:00;101900.0;;;15.4;84.6
78679;BME280;67994;59.334;13.528;2023-09-08T00:09:02;101900.0;;;15.3;84.4
78679;BME280;67994;59.334;13.528;2023-09-08T00:10:00;101900.0;;;15.3;84.9
78679;BME280;67994;59.334;13.528;2023-09-08T00:11:00;101900.0;;;15.3;84.8
78679;BME280;67994;59.334;13.528;2023-09-08T00:12:00;101900.0;;;15.2;84.9
78679;BME280;67994;59.334;13.528;2023-09-08T00:13:00;101900.0;;;15.2;84.5
78679;BME280;67994;59.334;13.528;2023-09-08T00:14:00;101900.0;;;15.3;84.7
78679;BME280;67994;59.334;13.528;2023-09-08T00:15:00;101900.0;;;15.3;85.0
78679;BME280;67994;59.334;13.528;2023-09-08T00:16:00;101900.0;;;15.2;85.6
78679;BME280;67994;59.334;13.528;2023-09-08T00:17:00;101900.0;;;15.2;85.7
78679;BME280;67994;59.334;13.528;2023-09-08T00:18:00;101900.0;;;15.2;85.4
78679;BME280;67994;59.334;13.528;2023-09-08T00:19:00;101900.0;;;15.2;85.2
78679;BME280;67994;59.334;13.528;2023-09-08T00:20:00;101900.0;;;15.1;85.2
78679;BME280;67994;59.334;13.528;2023-09-08T00:21:00;101900.0;;;15.2;85.2
78679;BME280;67994;59.334;13.528;2023-09-08T00:22:00;101900.0;;;15.1;85.4
78679;BME280;67994;59.334;13.528;2023-09-08T00:23:00;101900.0;;;15.0;86.0
78679;BME280;67994;59.334;13.528;2023-09-08T00:24:00;101900.0;;;15.0;85.9
78679;BME280;67994;59.334;13.528;2023-09-08T00:25:00;101900.0;;;15.0;85.7
78679;BME280;67994;59.334;13.528;2023-09-08T00:26:00;101900.0;;;15.0;85.7
78679;BME280;67994;59.334;13.528;2023-09-08T00:27:00;101900.0;;;15.0;85.6
78679;BME280;67994;59.334;13.528;2023-09-08T00:28:00;101900.0;;;15.0;85.4
78679;BME280;67994;59.334;13.528;2023-09-08T00:29:00;101900.0;;;15.0;85.7
78679;BME280;67994;59.334;13.528;2023-09-08T00:30:00;101900.0;;;15.1;84.9
78679;BME280;67994;59.334;13.528;2023-09-08T00:31:00;101900.0;;;15.0;84.8
78679;BME280;67994;59.334;13.528;2023-09-08T00:32:00;101900.0;;;15.0;85.1
78679;BME280;67994;59.334;13.528;2023-09-08T00:33:00;101900.0;;;15.0;84.9
78679;BME280;67994;59.334;13.528;2023-09-08T00:34:00;101900.0;;;14.9;85.0
78679;BME280;67994;59.334;13.528;2023-09-08T00:35:00;101900.0;;;14.9;85.1
78679;BME280;67994;59.334;13.528;2023-09-08T00:36:00;101900.0;;;14.9;85.2
78679;BME280;67994;59.334;13.528;2023-09-08T00:37:00;101900.0;;;14.9;85.0
78679;BME280;67994;59.334;13.528;2023-09-08T00:38:00;101900.0;;;14.9;84.9
78679;BME280;67994;59.334;13.528;2023-09-08T00:39:00;101900.0;;;14.8;85.0
78679;BME280;67994;59.334;13.528;2023-09-08T00:40:00;101900.0;;;14.8;85.2
78679;BME280;67994;59.334;13.528;2023-09-08T00:41:00;101900.0;;;14.8;85.1
78679;BME280;67994;59.334;13.528;2023-09-08T00:42:00;101900.0;;;14.9;85.0
78679;BME280;67994;59.334;13.528;2023-09-08T00:43:00;101900.0;;;14.9;85.0
78679;BME280;67994;59.334;13.528;2023-09-08T00:44:00;101900.0;;;14.9;85.2
78679;BME280;67994;59.334;13.528;2023-09-08T00:45:00;101900.0;;;14.8;85.7
78679;BME280;67994;59.334;13.528;2023-09-08T00:46:00;101900.0;;;14.9;85.7
78679;BME280;67994;59.334;13.528;2023-09-08T00:47:00;101900.0;;;14.8;85.9
78679;BME280;67994;59.334;13.528;2023-09-08T00:48:00;101900.0;;;14.8;86.2
78679;BME280;67994;59.334;13.528;2023-09-08T00:49:00;101900.0;;;14.9;85.8
78679;BME280;67994;59.334;13.528;2023-09-08T00:50:01;101900.0;;;14.9;85.3
78679;BME280;67994;59.334;13.528;2023-09-08T00:51:00;101900.0;;;14.8;85.4
78679;BME280;67994;59.334;13.528;2023-09-08T00:52:00;101900.0;;;14.8;85.4
78679;BME280;67994;59.334;13.528;2023-09-08T00:53:00;101900.0;;;14.8;85.0
78679;BME280;67994;59.334;13.528;2023-09-08T00:54:01;101900.0;;;14.8;85.1
78679;BME280;67994;59.334;13.528;2023-09-08T00:55:00;101900.0;;;14.8;85.0
78679;BME280;67994;59.334;13.528;2023-09-08T00:56:00;101900.0;;;14.8;85.0
78679;BME280;67994;59.334;13.528;2023-09-08T00:57:02;101900.0;;;14.8;85.3
78679;BME280;67994;59.334;13.528;2023-09-08T00:58:00;101900.0;;;14.8;85.5
78679;BME280;67994;59.334;13.528;2023-09-08T00:59:00;101900.0;;;14.8;85.5
78679;BME280;67994;59.334;13.528;2023-09-08T01:00:00;101900.0;;;14.8;85.7
78679;BME280;67994;59.334;13.528;2023-09-08T01:01:00;101900.0;;;14.8;85.6
78679;BME280;67994;59.334;13.528;2023-09-08T01:02:01;101900.0;;;14.8;85.8
78679;BME280;67994;59.334;13.528;2023-09-08T01:03:00;101900.0;;;14.8;85.7
78679;BME280;67994;59.334;13.528;2023-09-08T01:04:00;101900.0;;;14.7;86.0
78679;BME280;67994;59.334;13.528;2023-09-08T01:05:00;101900.0;;;14.7;85.9
78679;BME280;67994;59.334;13.528;2023-09-08T01:06:00;101900.0;;;14.7;85.5
78679;BME280;67994;59.334;13.528;2023-09-08T01:07:00;101900.0;;;14.8;85.4
78679;BME280;67994;59.334;13.528;2023-09-08T01:08:00;101900.0;;;14.8;85.1
78679;BME280;67994;59.334;13.528;2023-09-08T01:09:00;101900.0;;;14.8;84.9
78679;BME280;67994;59.334;13.528;2023-09-08T01:10:01;101900.0;;;14.8;84.9
78679;BME280;67994;59.334;13.528;2023-09-08T01:11:00;101900.0;;;14.8;84.7
78679;BME280;67994;59.334;13.528;2023-09-08T01:12:02;101900.0;;;14.8;84.7
78679;BME280;67994;59.334;13.528;2023-09-08T01:13:00;101900.0;;;14.8;84.9
78679;BME280;67994;59.334;13.528;2023-09-08T01:14:00;101900.0;;;14.8;84.9
78679;BME280;67994;59.334;13.528;2023-09-08T01:15:00;101900.0;;;14.8;84.4
78679;BME280;67994;59.334;13.528;2023-09-08T01:16:01;101900.0;;;14.8;84.7
78679;BME280;67994;59.334;13.528;2023-09-08T01:17:00;101900.0;;;14.8;84.7
78679;BME280;67994;59.334;13.528;2023-09-08T01:18:00;101900.0;;;14.7;84.9
78679;BME280;67994;59.334;13.528;2023-09-08T01:19:00;101900.0;;;14.7;85.2
78679;BME280;67994;59.334;13.528;2023-09-08T01:20:04;101900.0;;;14.7;85.2
78679;BME280;67994;59.334;13.528;2023-09-08T01:21:11;101900.0;;;14.7;84.7
78679;BME280;67994;59.334;13.528;2023-09-08T01:22:17;101900.0;;;14.8;84.5
78679;BME280;67994;59.334;13.528;2023-09-08T01:23:08;101900.0;;;14.7;84.9
78679;BME280;67994;59.334;13.528;2023-09-08T01:24:17;101900.0;;;14.7;85.2
78679;BME280;67994;59.334;13.528;2023-09-08T01:25:07;101900.0;;;14.6;85.7
78679;BME280;67994;59.334;13.528;2023-09-08T01:26:04;101900.0;;;14.7;85.5
78679;BME280;67994;59.334;13.528;2023-09-08T01:27:00;101900.0;;;14.7;85.8
78679;BME280;67994;59.334;13.528;2023-09-08T01:28:01;101900.0;;;14.7;85.5
78679;BME280;67994;59.334;13.528;2023-09-08T01:29:01;101900.0;;;14.7;85.5
78679;BME280;67994;59.334;13.528;2023-09-08T01:30:01;101900.0;;;14.7;85.3
78679;BME280;67994;59.334;13.528;2023-09-08T01:31:00;101900.0;;;14.7;85.2
78679;BME280;67994;59.334;13.528;2023-09-08T01:32:00;101900.0;;;14.7;85.1
78679;BME280;67994;59.334;13.528;2023-09-08T01:33:00;101900.0;;;14.7;85.6
78679;BME280;67994;59.334;13.528;2023-09-08T01:34:01;101900.0;;;14.7;85.5
78679;BME280;67994;59.334;13.528;2023-09-08T01:35:00;101900.0;;;14.8;85.2
78679;BME280;67994;59.334;13.528;2023-09-08T01:36:00;101900.0;;;14.8;85.4
78679;BME280;67994;59.334;13.528;2023-09-08T01:37:00;101900.0;;;14.8;85.6
78679;BME280;67994;59.334;13.528;2023-09-08T01:38:00;101900.0;;;14.8;85.8
78679;BME280;67994;59.334;13.528;2023-09-08T01:39:01;101900.0;;;14.8;86.1
78679;BME280;67994;59.334;13.528;2023-09-08T01:40:00;101900.0;;;14.8;86.2
78679;BME280;67994;59.334;13.528;2023-09-08T01:41:00;101900.0;;;14.7;86.3
78679;BME280;67994;59.334;13.528;2023-09-08T01:42:00;101900.0;;;14.7;87.3
78679;BME280;67994;59.334;13.528;2023-09-08T01:43:00;101900.0;;;14.8;87.1
78679;BME280;67994;59.334;13.528;2023-09-08T01:44:00;101900.0;;;14.8;87.7
78679;BME280;67994;59.334;13.528;2023-09-08T01:45:00;101900.0;;;14.7;88.5
78679;BME280;67994;59.334;13.528;2023-09-08T01:46:00;101900.0;;;14.7;88.8
78679;BME280;67994;59.334;13.528;2023-09-08T01:47:00;101900.0;;;14.7;88.5
78679;BME280;67994;59.334;13.528;2023-09-08T01:48:00;101900.0;;;14.8;88.5
78679;BME280;67994;59.334;13.528;2023-09-08T01:49:00;101900.0;;;14.7;88.8
78679;BME280;67994;59.334;13.528;2023-09-08T01:50:00;101900.0;;;14.7;87.5
78679;BME280;67994;59.334;13.528;2023-09-08T01:51:00;101900.0;;;14.7;87.8
78679;BME280;67994;59.334;13.528;2023-09-08T01:52:00;101900.0;;;14.7;87.5
78679;BME280;67994;59.334;13.528;2023-09-08T01:53:00;101900.0;;;14.7;87.6
78679;BME280;67994;59.334;13.528;2023-09-08T01:54:00;101900.0;;;14.8;87.1
78679;BME280;67994;59.334;13.528;2023-09-08T01:55:00;101900.0;;;14.8;86.7
78679;BME280;67994;59.334;13.528;2023-09-08T01:56:00;101900.0;;;14.8;86.5
78679;BME280;67994;59.334;13.528;2023-09-08T01:57:00;101900.0;;;14.8;87.0
78679;BME280;67994;59.334;13.528;2023-09-08T01:58:00;101900.0;;;14.8;86.8
78679;BME280;67994;59.334;13.528;2023-09-08T01:59:00;101900.0;;;14.7;88.4
78679;BME280;67994;59.334;13.528;2023-09-08T02:00:00;101900.0;;;14.7;88.5
78679;BME280;67994;59.334;13.528;2023-09-08T02:01:00;101900.0;;;14.8;87.9
78679;BME280;67994;59.334;13.528;2023-09-08T02:02:00;101900.0;;;14.8;87.1
78679;BME280;67994;59.334;13.528;2023-09-08T02:03:00;101900.0;;;14.8;86.8
78679;BME280;67994;59.334;13.528;2023-09-08T02:04:00;101900.0;;;14.7;86.8
78679;BME280;67994;59.334;13.528;2023-09-08T02:05:00;101900.0;;;14.6;87.0
78679;BME280;67994;59.334;13.528;2023-09-08T02:06:00;101900.0;;;14.6;86.2
78679;BME280;67994;59.334;13.528;2023-09-08T02:07:00;101900.0;;;14.6;86.6
78679;BME280;67994;59.334;13.528;2023-09-08T02:08:00;101900.0;;;14.5;87.1
78679;BME280;67994;59.334;13.528;2023-09-08T02:09:00;101900.0;;;14.5;87.5
78679;BME280;67994;59.334;13.528;2023-09-08T02:10:00;101900.0;;;14.5;87.1
78679;BME280;67994;59.334;13.528;2023-09-08T02:11:00;101900.0;;;14.6;87.1
78679;BME280;67994;59.334;13.528;2023-09-08T02:12:00;101900.0;;;14.6;86.7
78679;BME280;67994;59.334;13.528;2023-09-08T02:13:00;101900.0;;;14.6;87.6
78679;BME280;67994;59.334;13.528;2023-09-08T02:14:00;101900.0;;;14.7;87.0
78679;BME280;67994;59.334;13.528;2023-09-08T02:15:00;101900.0;;;14.6;87.0
78679;BME280;67994;59.334;13.528;2023-09-08T02:16:00;101900.0;;;14.6;87.0
78679;BME280;67994;59.334;13.528;2023-09-08T02:17:00;101900.0;;;14.6;86.5
78679;BME280;67994;59.334;13.528;2023-09-08T02:18:00;101900.0;;;14.7;86.5
78679;BME280;67994;59.334;13.528;2023-09-08T02:19:00;101900.0;;;14.6;87.0
78679;BME280;67994;59.334;13.528;2023-09-08T02:20:00;101900.0;;;14.7;87.1
78679;BME280;67994;59.334;13.528;2023-09-08T02:21:00;101900.0;;;14.7;86.7
78679;BME280;67994;59.334;13.528;2023-09-08T02:22:00;101900.0;;;14.7;87.8
78679;BME280;67994;59.334;13.528;2023-09-08T02:23:04;101900.0;;;14.7;87.4
78679;BME280;67994;59.334;13.528;2023-09-08T02:24:00;101900.0;;;14.7;88.0
78679;BME280;67994;59.334;13.528;2023-09-08T02:25:00;101900.0;;;14.7;87.5
78679;BME280;67994;59.334;13.528;2023-09-08T02:26:00;101900.0;;;14.7;87.2
78679;BME280;67994;59.334;13.528;2023-09-08T02:27:00;101900.0;;;14.7;86.8
78679;BME280;67994;59.334;13.528;2023-09-08T02:28:00;101900.0;;;14.7;87.2
78679;BME280;67994;59.334;13.528;2023-09-08T02:29:00;101900.0;;;14.7;87.4
78679;BME280;67994;59.334;13.528;2023-09-08T02:30:01;101900.0;;;14.7;88.0
78679;BME280;67994;59.334;13.528;2023-09-08T02:31:00;101900.0;;;14.7;87.8
78679;BME280;67994;59.334;13.528;2023-09-08T02:32:00;101900.0;;;14.7;88.2
78679;BME280;67994;59.334;13.528;2023-09-08T02:33:00;101900.0;;;14.7;88.0
78679;BME280;67994;59.334;13.528;2023-09-08T02:34:00;101900.0;;;14.7;88.3
78679;BME280;67994;59.334;13.528;2023-09-08T02:35:00;101900.0;;;14.8;87.5
78679;BME280;67994;59.334;13.528;2023-09-08T02:36:03;101900.0;;;14.8;87.4
78679;BME280;67994;59.334;13.528;2023-09-08T02:37:00;101900.0;;;14.8;87.4
78679;BME280;67994;59.334;13.528;2023-09-08T02:38:00;101900.0;;;14.8;87.8
78679;BME280;67994;59.334;13.528;2023-09-08T02:39:00;101900.0;;;14.8;88.2
78679;BME280;67994;59.334;13.528;2023-09-08T02:40:00;101900.0;;;14.8;88.8
78679;BME280;67994;59.334;13.528;2023-09-08T02:41:00;101900.0;;;14.8;87.9
78679;BME280;67994;59.334;13.528;2023-09-08T02:42:00;101900.0;;;14.8;87.9
78679;BME280;67994;59.334;13.528;2023-09-08T02:43:00;101900.0;;;14.9;88.9
78679;BME280;67994;59.334;13.528;2023-09-08T02:44:02;101900.0;;;14.9;88.8
78679;BME280;67994;59.334;13.528;2023-09-08T02:45:00;101900.0;;;14.9;88.7
78679;BME280;67994;59.334;13.528;2023-09-08T02:46:00;101900.0;;;14.9;88.2
78679;BME280;67994;59.334;13.528;2023-09-08T02:47:00;101900.0;;;15.0;87.8
78679;BME280;67994;59.334;13.528;2023-09-08T02:48:00;101900.0;;;15.0;87.5
78679;BME280;67994;59.334;13.528;2023-09-08T02:49:00;101900.0;;;15.0;86.8
78679;BME280;67994;59.334;13.528;2023-09-08T02:50:00;101900.0;;;15.0;86.5
78679;BME280;67994;59.334;13.528;2023-09-08T02:51:00;101900.0;;;15.0;87.2
78679;BME280;67994;59.334;13.528;2023-09-08T02:52:00;101900.0;;;15.0;87.2
78679;BME280;67994;59.334;13.528;2023-09-08T02:53:00;101900.0;;;15.0;86.9
78679;BME280;67994;59.334;13.528;2023-09-08T02:54:00;101900.0;;;15.1;86.8
78679;BME280;67994;59.334;13.528;2023-09-08T02:55:00;101900.0;;;15.1;86.9
78679;BME280;67994;59.334;13.528;2023-09-08T02:56:00;101900.0;;;15.0;87.4
78679;BME280;67994;59.334;13.528;2023-09-08T02:57:00;101900.0;;;15.1;87.1
78679;BME280;67994;59.334;13.528;2023-09-08T02:58:00;101900.0;;;15.1;87.3
78679;BME280;67994;59.334;13.528;2023-09-08T02:59:00;101900.0;;;15.1;87.3
78679;BME280;67994;59.334;13.528;2023-09-08T03:00:00;101900.0;;;15.1;87.4
78679;BME280;67994;59.334;13.528;2023-09-08T03:01:09;101900.0;;;15.1;87.7
78679;BME280;67994;59.334;13.528;2023-09-08T03:02:00;101900.0;;;15.1;87.7
78679;BME280;67994;59.334;13.528;2023-09-08T03:03:00;101900.0;;;15.1;87.8
78679;BME280;67994;59.334;13.528;2023-09-08T03:04:00;101900.0;;;15.1;87.8
78679;BME280;67994;59.334;13.528;2023-09-08T03:05:00;101900.0;;;15.1;88.3
78679;BME280;67994;59.334;13.528;2023-09-08T03:06:00;101900.0;;;15.1;88.4
78679;BME280;67994;59.334;13.528;2023-09-08T03:07:00;101900.0;;;15.1;88.2
78679;BME280;67994;59.334;13.528;2023-09-08T03:08:00;101900.0;;;15.1;88.2
78679;BME280;67994;59.334;13.528;2023-09-08T03:09:00;101900.0;;;15.1;88.4
78679;BME280;67994;59.334;13.528;2023-09-08T03:10:00;101900.0;;;15.1;88.0
78679;BME280;67994;59.334;13.528;2023-09-08T03:11:00;101900.0;;;15.1;87.4
78679;BME280;67994;59.334;13.528;2023-09-08T03:12:00;101900.0;;;15.1;87.1
78679;BME280;67994;59.334;13.528;2023-09-08T03:13:00;101900.0;;;15.1;87.1
78679;BME280;67994;59.334;13.528;2023-09-08T03:14:00;101900.0;;;15.1;87.4
78679;BME280;67994;59.334;13.528;2023-09-08T03:15:00;101900.0;;;15.1;87.2
78679;BME280;67994;59.334;13.528;2023-09-08T03:16:02;101900.0;;;15.1;87.1
78679;BME280;67994;59.334;13.528;2023-09-08T03:17:00;101900.0;;;15.1;86.7
78679;BME280;67994;59.334;13.528;2023-09-08T03:18:00;101900.0;;;15.1;86.6
78679;BME280;67994;59.334;13.528;2023-09-08T03:19:00;101900.0;;;15.1;86.6
78679;BME280;67994;59.334;13.528;2023-09-08T03:20:00;101900.0;;;15.1;87.1
78679;BME280;67994;59.334;13.528;2023-09-08T03:21:00;101900.0;;;15.1;87.5
78679;BME280;67994;59.334;13.528;2023-09-08T03:22:00;101900.0;;;15.0;87.6
78679;BME280;67994;59.334;13.528;2023-09-08T03:23:00;101900.0;;;15.1;87.3
78679;BME280;67994;59.334;13.528;2023-09-08T03:24:00;101900.0;;;15.1;87.0
78679;BME280;67994;59.334;13.528;2023-09-08T03:25:00;101900.0;;;15.0;87.8
78679;BME280;67994;59.334;13.528;2023-09-08T03:26:00;101900.0;;;15.0;87.6
78679;BME280;67994;59.334;13.528;2023-09-08T03:27:00;101900.0;;;15.1;87.3
78679;BME280;67994;59.334;13.528;2023-09-08T03:28:00;101900.0;;;15.1;87.3
78679;BME280;67994;59.334;13.528;2023-09-08T03:29:00;101900.0;;;15.1;87.3
78679;BME280;67994;59.334;13.528;2023-09-08T03:30:00;101900.0;;;15.1;87.3
78679;BME280;67994;59.334;13.528;2023-09-08T03:31:00;101900.0;;;15.1;87.0
78679;BME280;67994;59.334;13.528;2023-09-08T03:32:00;101900.0;;;15.1;87.0
78679;BME280;67994;59.334;13.528;2023-09-08T03:33:00;101900.0;;;15.1;87.0
78679;BME280;67994;59.334;13.528;2023-09-08T03:34:00;101900.0;;;15.1;87.0
78679;BME280;67994;59.334;13.528;2023-09-08T03:35:00;101900.0;;;15.1;87.3
78679;BME280;67994;59.334;13.528;2023-09-08T03:36:00;101900.0;;;15.0;87.7
78679;BME280;67994;59.334;13.528;2023-09-08T03:37:00;101900.0;;;15.0;87.9
78679;BME280;67994;59.334;13.528;2023-09-08T03:38:00;101900.0;;;15.0;88.2
78679;BME280;67994;59.334;13.528;2023-09-08T03:39:00;101900.0;;;15.0;88.2
78679;BME280;67994;59.334;13.528;2023-09-08T03:40:00;101900.0;;;15.1;86.7
78679;BME280;67994;59.334;13.528;2023-09-08T03:41:00;101900.0;;;15.0;87.8
78679;BME280;67994;59.334;13.528;2023-09-08T03:42:01;101900.0;;;15.0;87.3
78679;BME280;67994;59.334;13.528;2023-09-08T03:43:00;101900.0;;;15.0;87.3
78679;BME280;67994;59.334;13.528;2023-09-08T03:44:00;101900.0;;;15.0;88.0
78679;BME280;67994;59.334;13.528;2023-09-08T03:45:00;101900.0;;;15.0;88.0
78679;BME280;67994;59.334;13.528;2023-09-08T03:46:00;101900.0;;;15.0;88.0
78679;BME280;67994;59.334;13.528;2023-09-08T03:47:00;101900.0;;;15.0;88.0
78679;BME280;67994;59.334;13.528;2023-09-08T03:48:00;101900.0;;;15.1;88.0
78679;BME280;67994;59.334;13.528;2023-09-08T03:49:00;101900.0;;;15.1;88.1
78679;BME280;67994;59.334;13.528;2023-09-08T03:50:00;101900.0;;;15.0;88.6
78679;BME280;67994;59.334;13.528;2023-09-08T03:51:00;101900.0;;;15.0;88.6
78679;BME280;67994;59.334;13.528;2023-09-08T03:52:00;101900.0;;;15.1;88.3
78679;BME280;67994;59.334;13.528;2023-09-08T03:53:00;101900.0;;;15.1;88.6
78679;BME280;67994;59.334;13.528;2023-09-08T03:54:00;101900.0;;;15.1;88.1
78679;BME280;67994;59.334;13.528;2023-09-08T03:55:00;101900.0;;;15.2;87.1
78679;BME280;67994;59.334;13.528;2023-09-08T03:56:00;101900.0;;;15.2;87.1
78679;BME280;67994;59.334;13.528;2023-09-08T03:57:00;101900.0;;;15.2;87.9
78679;BME280;67994;59.334;13.528;2023-09-08T03:58:00;101900.0;;;15.2;87.9
78679;BME280;67994;59.334;13.528;2023-09-08T03:59:00;101900.0;;;15.2;88.3
78679;BME280;67994;59.334;13.528;2023-09-08T04:00:00;101900.0;;;15.2;88.1
78679;BME280;67994;59.334;13.528;2023-09-08T04:01:00;101900.0;;;15.2;88.2
78679;BME280;67994;59.334;13.528;2023-09-08T04:02:00;101900.0;;;15.2;88.5
78679;BME280;67994;59.334;13.528;2023-09-08T04:03:00;101900.0;;;15.2;88.6
78679;BME280;67994;59.334;13.528;2023-09-08T04:04:00;101900.0;;;15.2;88.5
78679;BME280;67994;59.334;13.528;2023-09-08T04:05:01;101900.0;;;15.2;88.1
78679;BME280;67994;59.334;13.528;2023-09-08T04:06:00;101900.0;;;15.3;87.9
78679;BME280;67994;59.334;13.528;2023-09-08T04:07:00;101900.0;;;15.3;87.9
78679;BME280;67994;59.334;13.528;2023-09-08T04:08:00;101900.0;;;15.3;88.0
78679;BME280;67994;59.334;13.528;2023-09-08T04:09:00;101900.0;;;15.3;88.1
78679;BME280;67994;59.334;13.528;2023-09-08T04:10:00;101900.0;;;15.3;88.3
78679;BME280;67994;59.334;13.528;2023-09-08T04:11:00;101800.0;;;15.3;87.9
78679;BME280;67994;59.334;13.528;2023-09-08T04:12:00;101800.0;;;15.3;87.8
78679;BME280;67994;59.334;13.528;2023-09-08T04:13:00;101800.0;;;15.4;87.3
78679;BME280;67994;59.334;13.528;2023-09-08T04:14:00;101800.0;;;15.4;87.7
78679;BME280;67994;59.334;13.528;2023-09-08T04:15:00;101900.0;;;15.3;88.3
78679;BME280;67994;59.334;13.528;2023-09-08T04:16:00;101900.0;;;15.3;88.7
78679;BME280;67994;59.334;13.528;2023-09-08T04:17:00;101900.0;;;15.3;88.6
78679;BME280;67994;59.334;13.528;2023-09-08T04:18:00;101900.0;;;15.3;88.2
78679;BME280;67994;59.334;13.528;2023-09-08T04:19:00;101800.0;;;15.3;88.1
78679;BME280;67994;59.334;13.528;2023-09-08T04:20:00;101800.0;;;15.4;87.8
78679;BME280;67994;59.334;13.528;2023-09-08T04:21:00;101800.0;;;15.4;87.7
78679;BME280;67994;59.334;13.528;2023-09-08T04:22:00;101800.0;;;15.4;88.0
78679;BME280;67994;59.334;13.528;2023-09-08T04:23:00;101800.0;;;15.4;88.0
78679;BME280;67994;59.334;13.528;2023-09-08T04:24:00;101800.0;;;15.4;88.0
78679;BME280;67994;59.334;13.528;2023-09-08T04:25:01;101800.0;;;15.4;88.3
78679;BME280;67994;59.334;13.528;2023-09-08T04:26:00;101800.0;;;15.4;88.3
78679;BME280;67994;59.334;13.528;2023-09-08T04:27:00;101800.0;;;15.4;88.1
78679;BME280;67994;59.334;13.528;2023-09-08T04:28:00;101800.0;;;15.4;88.1
78679;BME280;67994;59.334;13.528;2023-09-08T04:29:00;101800.0;;;15.4;88.0
78679;BME280;67994;59.334;13.528;2023-09-08T04:30:00;101800.0;;;15.5;87.8
78679;BME280;67994;59.334;13.528;2023-09-08T04:31:00;101800.0;;;15.4;88.0
78679;BME280;67994;59.334;13.528;2023-09-08T04:32:00;101800.0;;;15.4;87.7
78679;BME280;67994;59.334;13.528;2023-09-08T04:33:00;101800.0;;;15.4;87.7
78679;BME280;67994;59.334;13.528;2023-09-08T04:34:00;101800.0;;;15.4;88.4
78679;BME280;67994;59.334;13.528;2023-09-08T04:35:00;101800.0;;;15.4;88.3
78679;BME280;67994;59.334;13.528;2023-09-08T04:36:00;101800.0;;;15.4;89.0
78679;BME280;67994;59.334;13.528;2023-09-08T04:37:00;101800.0;;;15.3;89.3
78679;BME280;67994;59.334;13.528;2023-09-08T04:38:00;101800.0;;;15.1;90.2
78679;BME280;67994;59.334;13.528;2023-09-08T04:39:00;101800.0;;;15.1;89.9
78679;BME280;67994;59.334;13.528;2023-09-08T04:40:00;101800.0;;;15.1;89.9
78679;BME280;67994;59.334;13.528;2023-09-08T04:41:00;101800.0;;;15.2;89.9
78679;BME280;67994;59.334;13.528;2023-09-08T04:42:00;101800.0;;;15.3;89.4
78679;BME280;67994;59.334;13.528;2023-09-08T04:43:00;101800.0;;;15.4;89.0
78679;BME280;67994;59.334;13.528;2023-09-08T04:44:00;101800.0;;;15.4;88.9
78679;BME280;67994;59.334;13.528;2023-09-08T04:45:00;101800.0;;;15.4;88.8
78679;BME280;67994;59.334;13.528;2023-09-08T04:46:00;101800.0;;;15.5;88.5
78679;BME280;67994;59.334;13.528;2023-09-08T04:47:00;101800.0;;;15.6;87.8
78679;BME280;67994;59.334;13.528;2023-09-08T04:48:00;101800.0;;;15.5;88.4
78679;BME280;67994;59.334;13.528;2023-09-08T04:49:00;101800.0;;;15.5;88.8
78679;BME280;67994;59.334;13.528;2023-09-08T04:50:00;101800.0;;;15.5;89.0
78679;BME280;67994;59.334;13.528;2023-09-08T04:51:00;101800.0;;;15.4;89.4
78679;BME280;67994;59.334;13.528;2023-09-08T04:52:00;101800.0;;;15.4;89.6
78679;BME280;67994;59.334;13.528;2023-09-08T04:53:00;101800.0;;;15.4;89.2
78679;BME280;67994;59.334;13.528;2023-09-08T04:54:00;101800.0;;;15.5;88.5
78679;BME280;67994;59.334;13.528;2023-09-08T04:55:00;101800.0;;;15.5;88.9
78679;BME280;67994;59.334;13.528;2023-09-08T04:56:00;101800.0;;;15.6;88.7
78679;BME280;67994;59.334;13.528;2023-09-08T04:57:00;101800.0;;;15.6;88.1
78679;BME280;67994;59.334;13.528;2023-09-08T04:58:00;101800.0;;;15.7;87.1
78679;BME280;67994;59.334;13.528;2023-09-08T04:59:00;101800.0;;;15.7;88.1
78679;BME280;67994;59.334;13.528;2023-09-08T05:00:01;101800.0;;;15.7;88.4
78679;BME280;67994;59.334;13.528;2023-09-08T05:01:00;101800.0;;;15.7;87.5
78679;BME280;67994;59.334;13.528;2023-09-08T05:02:00;101800.0;;;15.7;88.4
78679;BME280;67994;59.334;13.528;2023-09-08T05:03:00;101800.0;;;15.7;87.4
78679;BME280;67994;59.334;13.528;2023-09-08T05:04:00;101800.0;;;15.7;86.7
78679;BME280;67994;59.334;13.528;2023-09-08T05:05:00;101800.0;;;15.8;87.8
78679;BME280;67994;59.334;13.528;2023-09-08T05:06:00;101800.0;;;15.8;88.0
78679;BME280;67994;59.334;13.528;2023-09-08T05:07:00;101800.0;;;15.7;88.6
78679;BME280;67994;59.334;13.528;2023-09-08T05:08:00;101800.0;;;15.7;88.7
78679;BME280;67994;59.334;13.528;2023-09-08T05:09:00;101800.0;;;15.6;88.9
78679;BME280;67994;59.334;13.528;2023-09-08T05:10:00;101800.0;;;15.7;88.4
78679;BME280;67994;59.334;13.528;2023-09-08T05:11:00;101800.0;;;15.8;88.3
78679;BME280;67994;59.334;13.528;2023-09-08T05:12:00;101800.0;;;15.8;88.2
78679;BME280;67994;59.334;13.528;2023-09-08T05:13:00;101800.0;;;15.8;88.4
78679;BME280;67994;59.334;13.528;2023-09-08T05:14:00;101800.0;;;15.7;88.7
78679;BME280;67994;59.334;13.528;2023-09-08T05:15:00;101800.0;;;15.6;88.9
78679;BME280;67994;59.334;13.528;2023-09-08T05:16:00;101800.0;;;15.6;89.1
78679;BME280;67994;59.334;13.528;2023-09-08T05:17:00;101800.0;;;15.6;89.1
78679;BME280;67994;59.334;13.528;2023-09-08T05:18:00;101800.0;;;15.6;89.3
78679;BME280;67994;59.334;13.528;2023-09-08T05:19:00;101800.0;;;15.6;89.1
78679;BME280;67994;59.334;13.528;2023-09-08T05:20:00;101800.0;;;15.6;89.1
78679;BME280;67994;59.334;13.528;2023-09-08T05:21:00;101800.0;;;15.7;88.6